Time,TemperatureF,DewpointF,PressureIn,WindDirection,WindDirectionDegrees,WindSpeedMPH,WindSpeedGustMPH,Humidity,HourlyPrecipIn,Conditions,Clouds,dailyrainin,SolarRadiationWatts/m^2,SoftwareType,DateUTC
2013-04-22 00:03:00,68.0,67.0,-100.00,NE,34,3.0,-999.0,95,0.00,,,-99.99,0.000000,,2013-04-22 04:03:00,
2013-04-22 00:12:00,68.0,67.0,-100.00,NNE,26,2.0,-999.0,95,0.00,,,-99.99,0.000000,,2013-04-22 04:12:00,
2013-04-22 00:23:00,68.0,67.0,-100.00,NNE,26,2.0,-999.0,95,0.00,,,-99.99,0.000000,,2013-04-22 04:23:00,
2013-04-22 00:33:00,68.0,67.0,-100.00,NE,40,2.0,-999.0,95,0.00,,,-99.99,0.000000,,2013-04-22 04:33:00,
2013-04-22 00:43:00,68.0,67.0,-100.00,NNE,26,2.0,-999.0,96,0.00,,,-99.99,0.000000,,2013-04-22 04:43:00,
2013-04-22 00:53:00,68.0,67.0,-100.00,NNE,26,2.0,-999.0,96,0.00,,,-99.99,0.000000,,2013-04-22 04:53:00,
2013-04-22 01:02:00,68.0,67.0,-100.00,NNE,21,1.0,-999.0,96,0.00,,,-99.99,0.000000,,2013-04-22 05:02:00,
2013-04-22 01:12:00,68.0,67.0,-100.00,ENE,62,1.0,-999.0,96,0.00,,,-99.99,0.000000,,2013-04-22 05:12:00,
2013-04-22 01:22:00,68.0,67.0,-100.00,ENE,62,1.0,-999.0,96,0.00,,,-99.99,0.000000,,2013-04-22 05:22:00,
2013-04-22 01:32:00,68.0,67.0,-100.00,NNE,19,1.0,-999.0,96,0.00,,,-99.99,0.000000,,2013-04-22 05:32:00,
2013-04-22 01:42:00,68.0,67.0,-100.00,NW,316,1.0,-999.0,96,0.00,,,-99.99,0.000000,,2013-04-22 05:42:00,
2013-04-22 01:52:00,68.0,67.0,-100.00,NW,316,1.0,-999.0,96,0.00,,,-99.99,0.000000,,2013-04-22 05:52:00,
2013-04-22 02:02:00,68.0,67.0,-100.00,WNW,293,2.0,-999.0,96,0.03,,,-99.99,0.000000,,2013-04-22 06:02:00,
2013-04-22 02:12:00,69.0,68.0,-100.00,WNW,297,3.0,-999.0,96,0.00,,,-99.99,0.000000,,2013-04-22 06:12:00,
2013-04-22 02:21:00,69.0,68.0,-100.00,WNW,297,3.0,-999.0,96,0.00,,,-99.99,0.000000,,2013-04-22 06:21:00,
2013-04-22 02:32:00,69.0,68.0,-100.00,WNW,294,3.0,-999.0,96,0.03,,,-99.99,0.000000,,2013-04-22 06:32:00,
2013-04-22 02:42:00,69.0,68.0,-100.00,NW,320,3.0,-999.0,96,0.08,,,-99.99,0.000000,,2013-04-22 06:42:00,
2013-04-22 02:52:00,69.0,68.0,-100.00,NW,320,3.0,-999.0,96,0.08,,,-99.99,0.000000,,2013-04-22 06:52:00,
2013-04-22 03:01:00,68.0,67.0,-100.00,NW,320,4.0,-999.0,96,0.03,,,-99.99,0.000000,,2013-04-22 07:01:00,
2013-04-22 03:12:00,68.0,67.0,-100.00,NW,322,2.0,-999.0,96,0.03,,,-99.99,0.000000,,2013-04-22 07:12:00,
2013-04-22 03:21:00,68.0,67.0,-100.00,NW,322,2.0,-999.0,96,0.03,,,-99.99,0.000000,,2013-04-22 07:21:00,
2013-04-22 03:32:00,68.0,67.0,-100.00,NW,318,1.0,-999.0,97,0.03,,,-99.99,0.000000,,2013-04-22 07:32:00,
2013-04-22 03:42:00,68.0,67.0,-100.00,NNW,345,1.0,-999.0,97,0.03,,,-99.99,0.000000,,2013-04-22 07:42:00,
2013-04-22 03:52:00,68.0,67.0,-100.00,NNW,345,1.0,-999.0,97,0.03,,,-99.99,0.000000,,2013-04-22 07:52:00,
2013-04-22 04:02:00,68.0,67.0,-100.00,North,352,1.0,-999.0,97,0.00,,,-99.99,0.000000,,2013-04-22 08:02:00,
2013-04-22 04:11:00,68.0,67.0,-100.00,WNW,302,4.0,-999.0,97,0.03,,,-99.99,0.000000,,2013-04-22 08:11:00,
2013-04-22 04:22:00,68.0,67.0,-100.00,WNW,302,4.0,-999.0,97,0.03,,,-99.99,0.000000,,2013-04-22 08:22:00,
2013-04-22 04:32:00,68.0,67.0,-100.00,NW,305,5.0,-999.0,97,0.00,,,-99.99,0.000000,,2013-04-22 08:32:00,
2013-04-22 04:42:00,68.0,67.0,-100.00,NW,322,3.0,-999.0,97,0.00,,,-99.99,0.000000,,2013-04-22 08:42:00,
2013-04-22 04:53:00,68.0,67.0,-100.00,NW,322,3.0,-999.0,97,0.00,,,-99.99,0.000000,,2013-04-22 08:53:00,
2013-04-22 05:01:00,67.0,67.0,-100.00,NW,314,2.0,-999.0,97,0.00,,,-99.99,0.000000,,2013-04-22 09:01:00,
2013-04-22 05:11:00,67.0,67.0,-100.00,NW,319,4.0,-999.0,97,0.00,,,-99.99,0.000000,,2013-04-22 09:11:00,
2013-04-22 05:21:00,67.0,67.0,-100.00,NW,319,4.0,-999.0,97,0.00,,,-99.99,0.000000,,2013-04-22 09:21:00,
2013-04-22 05:33:00,67.0,67.0,-100.00,NW,318,5.0,-999.0,97,0.00,,,-99.99,0.000000,,2013-04-22 09:33:00,
2013-04-22 05:42:00,67.0,67.0,-100.00,NNW,333,4.0,-999.0,97,0.00,,,-99.99,0.000000,,2013-04-22 09:42:00,
2013-04-22 05:52:00,67.0,67.0,-100.00,NNW,333,4.0,-999.0,97,0.00,,,-99.99,0.000000,,2013-04-22 09:52:00,
2013-04-22 06:03:00,67.0,67.0,-100.00,NNE,13,3.0,-999.0,97,0.00,,,-99.99,0.000000,,2013-04-22 10:03:00,
2013-04-22 06:12:00,67.0,67.0,-100.00,NNE,29,4.0,-999.0,97,0.00,,,-99.99,0.000000,,2013-04-22 10:12:00,
2013-04-22 06:22:00,67.0,67.0,-100.00,NNE,29,4.0,-999.0,97,0.00,,,-99.99,0.000000,,2013-04-22 10:22:00,
2013-04-22 06:32:00,68.0,67.0,-100.00,North,10,4.0,-999.0,97,0.00,,,-99.99,0.000000,,2013-04-22 10:32:00,
2013-04-22 06:42:00,68.0,67.0,-100.00,NNE,18,4.0,-999.0,97,0.00,,,-99.99,0.000000,,2013-04-22 10:42:00,
2013-04-22 06:52:00,68.0,67.0,-100.00,NNE,18,4.0,-999.0,97,0.00,,,-99.99,0.000000,,2013-04-22 10:52:00,
2013-04-22 07:02:00,68.0,67.0,-100.00,North,10,4.0,-999.0,97,0.00,,,-99.99,0.000000,,2013-04-22 11:02:00,
2013-04-22 07:12:00,68.0,67.0,-100.00,NNE,17,4.0,-999.0,97,0.00,,,-99.99,0.500000,,2013-04-22 11:12:00,
2013-04-22 07:22:00,68.0,67.0,-100.00,NNE,17,4.0,-999.0,97,0.00,,,-99.99,0.500000,,2013-04-22 11:22:00,
2013-04-22 07:32:00,68.0,67.0,-100.00,NNE,26,3.0,-999.0,98,0.00,,,-99.99,2.000000,,2013-04-22 11:32:00,
2013-04-22 07:42:00,68.0,67.0,-100.00,NNE,26,4.0,-999.0,98,0.00,,,-99.99,3.700000,,2013-04-22 11:42:00,
2013-04-22 07:52:00,68.0,67.0,-100.00,NNE,26,4.0,-999.0,98,0.00,,,-99.99,3.700000,,2013-04-22 11:52:00,
2013-04-22 08:02:00,68.0,67.0,-100.00,NNE,23,4.0,-999.0,98,0.00,,,-99.99,13.800000,,2013-04-22 12:02:00,
2013-04-22 08:12:00,68.0,67.0,-100.00,NNE,16,4.0,-999.0,98,0.00,,,-99.99,34.400002,,2013-04-22 12:12:00,
2013-04-22 08:21:00,68.0,67.0,-100.00,NNE,16,4.0,-999.0,98,0.00,,,-99.99,34.400002,,2013-04-22 12:21:00,
2013-04-22 08:32:00,68.0,67.0,-100.00,North,8,5.0,-999.0,98,0.00,,,-99.99,39.099998,,2013-04-22 12:32:00,
2013-04-22 08:42:00,68.0,67.0,-100.00,North,7,6.0,-999.0,97,0.00,,,-99.99,136.800003,,2013-04-22 12:42:00,
2013-04-22 08:52:00,68.0,67.0,-100.00,North,7,6.0,-999.0,97,0.00,,,-99.99,136.800003,,2013-04-22 12:52:00,
2013-04-22 09:01:00,68.0,67.0,-100.00,North,358,5.0,-999.0,97,0.00,,,-99.99,92.300003,,2013-04-22 13:01:00,
2013-04-22 09:11:00,68.0,67.0,-100.00,North,355,6.0,-999.0,97,0.00,,,-99.99,114.500000,,2013-04-22 13:11:00,
2013-04-22 09:22:00,68.0,67.0,-100.00,North,355,6.0,-999.0,97,0.00,,,-99.99,114.500000,,2013-04-22 13:22:00,
2013-04-22 09:32:00,68.0,67.0,-100.00,North,8,5.0,-999.0,97,0.00,,,-99.99,101.699997,,2013-04-22 13:32:00,
2013-04-22 09:42:00,68.0,67.0,-100.00,NNE,19,6.0,-999.0,97,0.00,,,-99.99,155.500000,,2013-04-22 13:42:00,
2013-04-22 09:53:00,68.0,67.0,-100.00,NNE,19,6.0,-999.0,97,0.00,,,-99.99,155.500000,,2013-04-22 13:53:00,
2013-04-22 10:02:00,69.0,68.0,-100.00,NNE,23,5.0,-999.0,97,0.00,,,-99.99,270.899994,,2013-04-22 14:02:00,
2013-04-22 10:11:00,70.0,68.0,-100.00,NNE,22,3.0,-999.0,96,0.00,,,-99.99,237.000000,,2013-04-22 14:11:00,
2013-04-22 10:21:00,70.0,68.0,-100.00,NNE,22,3.0,-999.0,96,0.00,,,-99.99,237.000000,,2013-04-22 14:21:00,
2013-04-22 10:33:00,70.0,69.0,-100.00,NNE,15,3.0,-999.0,94,0.00,,,-99.99,307.899994,,2013-04-22 14:33:00,
2013-04-22 10:42:00,72.0,69.0,-100.00,NNE,20,4.0,-999.0,90,0.00,,,-99.99,272.899994,,2013-04-22 14:42:00,
2013-04-22 10:52:00,72.0,69.0,-100.00,NNE,20,4.0,-999.0,90,0.00,,,-99.99,272.899994,,2013-04-22 14:52:00,
2013-04-22 11:02:00,73.0,69.0,-100.00,NNE,15,4.0,-999.0,86,0.00,,,-99.99,281.899994,,2013-04-22 15:02:00,
2013-04-22 11:12:00,73.0,68.0,-100.00,North,356,4.0,-999.0,85,0.00,,,-99.99,189.699997,,2013-04-22 15:12:00,
2013-04-22 11:22:00,73.0,68.0,-100.00,North,356,4.0,-999.0,85,0.00,,,-99.99,189.699997,,2013-04-22 15:22:00,
2013-04-22 11:33:00,73.0,68.0,-100.00,NNE,12,5.0,-999.0,86,0.00,,,-99.99,184.899994,,2013-04-22 15:33:00,
2013-04-22 11:43:00,72.0,68.0,-100.00,NNE,13,5.0,-999.0,86,0.00,,,-99.99,210.300003,,2013-04-22 15:43:00,
2013-04-22 11:53:00,72.0,68.0,-100.00,NNE,13,5.0,-999.0,86,0.00,,,-99.99,210.300003,,2013-04-22 15:53:00,
2013-04-22 12:03:00,72.0,68.0,-100.00,NNE,28,5.0,-999.0,86,0.00,,,-99.99,208.000000,,2013-04-22 16:03:00,
2013-04-22 12:12:00,72.0,68.0,-100.00,North,6,4.0,-999.0,86,0.00,,,-99.99,137.500000,,2013-04-22 16:12:00,
2013-04-22 12:23:00,72.0,68.0,-100.00,North,6,4.0,-999.0,86,0.00,,,-99.99,137.500000,,2013-04-22 16:23:00,
2013-04-22 12:33:00,72.0,68.0,-100.00,North,8,4.0,-999.0,86,0.00,,,-99.99,274.500000,,2013-04-22 16:33:00,
2013-04-22 12:42:00,73.0,68.0,-100.00,North,358,4.0,-999.0,83,0.00,,,-99.99,342.100006,,2013-04-22 16:42:00,
2013-04-22 12:52:00,73.0,68.0,-100.00,North,358,4.0,-999.0,83,0.00,,,-99.99,342.100006,,2013-04-22 16:52:00,
2013-04-22 13:02:00,74.0,68.0,-100.00,North,0,4.0,-999.0,81,0.00,,,-99.99,397.200012,,2013-04-22 17:02:00,
2013-04-22 13:12:00,74.0,68.0,-100.00,North,5,5.0,-999.0,82,0.00,,,-99.99,350.000000,,2013-04-22 17:12:00,
2013-04-22 13:22:00,74.0,68.0,-100.00,North,5,5.0,-999.0,82,0.00,,,-99.99,350.000000,,2013-04-22 17:22:00,
2013-04-22 13:32:00,74.0,68.0,-100.00,NNE,17,5.0,-999.0,81,0.00,,,-99.99,375.299988,,2013-04-22 17:32:00,
2013-04-22 13:42:00,75.0,68.0,-100.00,NE,53,6.0,-999.0,79,0.00,,,-99.99,448.000000,,2013-04-22 17:42:00,
2013-04-22 13:52:00,75.0,68.0,-100.00,NE,53,6.0,-999.0,79,0.00,,,-99.99,448.000000,,2013-04-22 17:52:00,
2013-04-22 14:01:00,76.0,69.0,-100.00,NE,52,5.0,-999.0,76,0.00,,,-99.99,684.900024,,2013-04-22 18:01:00,
2013-04-22 14:12:00,77.0,68.0,-100.00,NE,44,5.0,-999.0,73,0.00,,,-99.99,622.200012,,2013-04-22 18:12:00,
2013-04-22 14:21:00,77.0,68.0,-100.00,NE,44,5.0,-999.0,73,0.00,,,-99.99,622.200012,,2013-04-22 18:21:00,
2013-04-22 14:32:00,77.0,68.0,-100.00,NE,35,6.0,-999.0,74,0.00,,,-99.99,373.399994,,2013-04-22 18:32:00,
2013-04-22 14:42:00,76.0,68.0,-100.00,NNE,28,5.0,-999.0,74,0.00,,,-99.99,319.200012,,2013-04-22 18:42:00,
2013-04-22 14:52:00,76.0,68.0,-100.00,NNE,28,5.0,-999.0,74,0.00,,,-99.99,319.200012,,2013-04-22 18:52:00,
2013-04-22 15:01:00,77.0,69.0,-100.00,NNE,21,3.0,-999.0,76,0.00,,,-99.99,352.799988,,2013-04-22 19:01:00,
2013-04-22 15:12:00,78.0,69.0,-100.00,NNE,30,5.0,-999.0,73,0.00,,,-99.99,945.000000,,2013-04-22 19:12:00,
2013-04-22 15:22:00,78.0,69.0,-100.00,NNE,30,5.0,-999.0,73,0.00,,,-99.99,945.000000,,2013-04-22 19:22:00,
2013-04-22 15:32:00,78.0,68.0,-100.00,ENE,58,5.0,-999.0,71,0.00,,,-99.99,373.500000,,2013-04-22 19:32:00,
2013-04-22 15:42:00,78.0,68.0,-100.00,ENE,72,7.0,-999.0,70,0.00,,,-99.99,447.299988,,2013-04-22 19:42:00,
2013-04-22 15:53:00,78.0,68.0,-100.00,ENE,72,7.0,-999.0,70,0.00,,,-99.99,447.299988,,2013-04-22 19:53:00,
2013-04-22 16:02:00,78.0,67.0,-100.00,ENE,62,7.0,-999.0,68,0.00,,,-99.99,302.600006,,2013-04-22 20:02:00,
2013-04-22 16:11:00,78.0,66.0,-100.00,ENE,69,7.0,-999.0,67,0.00,,,-99.99,386.200012,,2013-04-22 20:11:00,
2013-04-22 16:22:00,78.0,66.0,-100.00,ENE,69,7.0,-999.0,67,0.00,,,-99.99,386.200012,,2013-04-22 20:22:00,
2013-04-22 16:32:00,78.0,67.0,-100.00,NE,52,4.0,-999.0,68,0.00,,,-99.99,209.300003,,2013-04-22 20:32:00,
2013-04-22 16:42:00,78.0,67.0,-100.00,NE,49,4.0,-999.0,71,0.00,,,-99.99,315.299988,,2013-04-22 20:42:00,
2013-04-22 16:52:00,78.0,67.0,-100.00,NE,49,4.0,-999.0,71,0.00,,,-99.99,315.299988,,2013-04-22 20:52:00,
2013-04-22 17:02:00,78.0,68.0,-100.00,NNE,30,5.0,-999.0,70,0.00,,,-99.99,220.899994,,2013-04-22 21:02:00,
2013-04-22 17:12:00,75.0,69.0,-100.00,NE,42,4.0,-999.0,82,0.11,,,-99.99,210.399994,,2013-04-22 21:12:00,
2013-04-22 17:21:00,75.0,69.0,-100.00,NE,42,4.0,-999.0,82,0.11,,,-99.99,210.399994,,2013-04-22 21:21:00,
2013-04-22 17:32:00,73.0,69.0,-100.00,NE,52,5.0,-999.0,84,0.00,,,-99.99,66.699997,,2013-04-22 21:32:00,
2013-04-22 17:43:00,73.0,68.0,-100.00,NNE,33,7.0,-999.0,83,0.00,,,-99.99,303.100006,,2013-04-22 21:43:00,
2013-04-22 17:53:00,73.0,68.0,-100.00,NNE,33,7.0,-999.0,83,0.00,,,-99.99,303.100006,,2013-04-22 21:53:00,
2013-04-22 18:03:00,74.0,68.0,-100.00,NNE,33,8.0,-999.0,83,0.00,,,-99.99,593.500000,,2013-04-22 22:03:00,
2013-04-22 18:12:00,73.0,68.0,-100.00,NE,34,9.0,-999.0,83,0.00,,,-99.99,321.899994,,2013-04-22 22:12:00,
2013-04-22 18:22:00,73.0,68.0,-100.00,NE,34,9.0,-999.0,83,0.00,,,-99.99,321.899994,,2013-04-22 22:22:00,
2013-04-22 18:33:00,72.0,68.0,-100.00,NNE,27,8.0,-999.0,86,0.00,,,-99.99,161.399994,,2013-04-22 22:33:00,
2013-04-22 18:42:00,72.0,67.0,-100.00,NE,40,7.0,-999.0,85,0.00,,,-99.99,131.500000,,2013-04-22 22:42:00,
2013-04-22 18:52:00,72.0,67.0,-100.00,NE,40,7.0,-999.0,85,0.00,,,-99.99,131.500000,,2013-04-22 22:52:00,
2013-04-22 19:02:00,72.0,66.0,-100.00,NE,43,8.0,-999.0,82,0.00,,,-99.99,142.100006,,2013-04-22 23:02:00,
2013-04-22 19:11:00,72.0,66.0,-100.00,NE,43,7.0,-999.0,83,0.00,,,-99.99,94.300003,,2013-04-22 23:11:00,
2013-04-22 19:21:00,72.0,66.0,-100.00,NE,43,7.0,-999.0,83,0.00,,,-99.99,94.300003,,2013-04-22 23:21:00,
2013-04-22 19:33:00,71.0,66.0,-100.00,NNE,29,7.0,-999.0,86,0.00,,,-99.99,30.299999,,2013-04-22 23:33:00,
2013-04-22 19:42:00,70.0,66.0,-100.00,NE,44,7.0,-999.0,87,0.00,,,-99.99,37.700001,,2013-04-22 23:42:00,
2013-04-22 19:52:00,70.0,66.0,-100.00,NE,44,7.0,-999.0,87,0.00,,,-99.99,37.700001,,2013-04-22 23:52:00,
2013-04-22 20:02:00,69.0,66.0,-100.00,NE,42,7.0,-999.0,87,0.00,,,-99.99,11.400000,,2013-04-23 00:02:00,
2013-04-22 20:12:00,69.0,65.0,-100.00,NE,41,7.0,-999.0,87,0.00,,,-99.99,3.600000,,2013-04-23 00:12:00,
2013-04-22 20:21:00,69.0,65.0,-100.00,NE,41,7.0,-999.0,87,0.00,,,-99.99,3.600000,,2013-04-23 00:21:00,
2013-04-22 20:32:00,68.0,64.0,-100.00,NE,43,8.0,-999.0,88,0.00,,,-99.99,0.500000,,2013-04-23 00:32:00,
2013-04-22 20:42:00,68.0,64.0,-100.00,NE,41,7.0,-999.0,88,0.00,,,-99.99,0.000000,,2013-04-23 00:42:00,
2013-04-22 20:52:00,68.0,64.0,-100.00,NE,41,7.0,-999.0,88,0.00,,,-99.99,0.000000,,2013-04-23 00:52:00,
2013-04-22 21:01:00,68.0,64.0,-100.00,NE,39,7.0,-999.0,88,0.00,,,-99.99,0.000000,,2013-04-23 01:01:00,
2013-04-22 21:11:00,67.0,64.0,-100.00,NE,37,6.0,-999.0,88,0.00,,,-99.99,0.000000,,2013-04-23 01:11:00,
2013-04-22 21:21:00,67.0,64.0,-100.00,NE,37,6.0,-999.0,88,0.00,,,-99.99,0.000000,,2013-04-23 01:21:00,
2013-04-22 21:32:00,67.0,64.0,-100.00,NE,39,6.0,-999.0,89,0.00,,,-99.99,0.000000,,2013-04-23 01:32:00,
2013-04-22 21:42:00,67.0,64.0,-100.00,NE,35,5.0,-999.0,89,0.00,,,-99.99,0.000000,,2013-04-23 01:42:00,
2013-04-22 21:52:00,67.0,64.0,-100.00,NE,35,5.0,-999.0,89,0.00,,,-99.99,0.000000,,2013-04-23 01:52:00,
2013-04-22 22:02:00,67.0,64.0,-100.00,NE,36,5.0,-999.0,89,0.00,,,-99.99,0.000000,,2013-04-23 02:02:00,
2013-04-22 22:12:00,66.0,64.0,-100.00,NNE,21,6.0,-999.0,90,0.00,,,-99.99,0.000000,,2013-04-23 02:12:00,
2013-04-22 22:21:00,66.0,64.0,-100.00,NNE,21,6.0,-999.0,90,0.00,,,-99.99,0.000000,,2013-04-23 02:21:00,
2013-04-22 22:32:00,66.0,63.0,-100.00,NNE,28,5.0,-999.0,91,0.00,,,-99.99,0.000000,,2013-04-23 02:32:00,
2013-04-22 22:42:00,66.0,63.0,-100.00,NNE,29,5.0,-999.0,91,0.00,,,-99.99,0.000000,,2013-04-23 02:42:00,
2013-04-22 22:52:00,66.0,63.0,-100.00,NNE,29,5.0,-999.0,91,0.00,,,-99.99,0.000000,,2013-04-23 02:52:00,
2013-04-22 23:01:00,65.0,63.0,-100.00,NNE,32,5.0,-999.0,91,0.00,,,-99.99,0.000000,,2013-04-23 03:01:00,
2013-04-22 23:11:00,65.0,63.0,-100.00,NE,39,4.0,-999.0,92,0.00,,,-99.99,0.000000,,2013-04-23 03:11:00,
2013-04-22 23:21:00,65.0,63.0,-100.00,NE,39,4.0,-999.0,92,0.00,,,-99.99,0.000000,,2013-04-23 03:21:00,
2013-04-22 23:33:00,65.0,63.0,-100.00,NNE,28,4.0,-999.0,92,0.00,,,-99.99,0.000000,,2013-04-23 03:33:00,
2013-04-22 23:43:00,65.0,63.0,-100.00,NNE,22,4.0,-999.0,92,0.00,,,-99.99,0.000000,,2013-04-23 03:43:00,
2013-04-22 23:53:00,65.0,63.0,-100.00,NNE,22,4.0,-999.0,92,0.00,,,-99.99,0.000000,,2013-04-23 03:53:00,